Time;durP1;ratioP1;P1;durP2;ratioP2;P2;SDS_P1;SDS_P2;PMS_P1;PMS_P2;Temp;Humidity;BMP_temperature;BMP_pressure;BME280_temperature;BME280_humidity;BME280_pressure;Samples;Min_cycle;Max_cycle;Signal;HPM_P1;HPM_P2
2022/05/08 00:01:05;;;;;;;1.73;1.00;;;12.40;74.10;;;;;;5112896;28;20124;-72
2022/05/08 00:03:32;;;;;;;1.08;0.98;;;12.40;74.20;;;;;;5094436;28;20071;-72
2022/05/08 00:06:00;;;;;;;1.48;1.10;;;12.30;74.30;;;;;;5095394;28;20035;-71
2022/05/08 00:08:28;;;;;;;1.52;1.00;;;12.20;74.40;;;;;;5113646;28;20466;-71
2022/05/08 00:10:54;;;;;;;2.13;1.00;;;12.20;74.40;;;;;;5112924;28;20044;-71
2022/05/08 00:13:20;;;;;;;1.63;1.10;;;12.20;74.50;;;;;;5112840;28;20062;-71
2022/05/08 00:15:45;;;;;;;3.58;1.30;;;12.10;74.40;;;;;;5112879;28;20040;-71
2022/05/08 00:18:11;;;;;;;1.65;1.10;;;12.10;74.40;;;;;;5094678;28;20046;-71
2022/05/08 00:20:37;;;;;;;2.63;1.35;;;12.10;74.50;;;;;;5094863;28;20100;-71
2022/05/08 00:23:03;;;;;;;2.25;1.30;;;12.00;74.60;;;;;;5112767;28;20127;-71
2022/05/08 00:25:28;;;;;;;3.78;1.25;;;12.00;74.60;;;;;;5112410;28;20036;-70
2022/05/08 00:27:54;;;;;;;2.53;1.50;;;12.00;74.70;;;;;;5112672;28;20032;-71
2022/05/08 00:30:20;;;;;;;2.10;1.40;;;11.90;74.80;;;;;;5113239;28;20523;-71
2022/05/08 00:32:45;;;;;;;2.05;1.38;;;11.90;74.70;;;;;;5112645;28;20122;-71
2022/05/08 00:35:11;;;;;;;2.97;1.40;;;11.90;74.80;;;;;;5112507;28;20500;-71
2022/05/08 00:37:39;;;;;;;1.20;1.10;;;11.80;74.80;;;;;;5112543;28;20031;-71
2022/05/08 00:40:05;;;;;;;1.67;1.15;;;11.80;75.00;;;;;;5112491;28;20039;-71
2022/05/08 00:42:31;;;;;;;1.90;1.15;;;11.90;75.00;;;;;;5112466;28;20044;-72
2022/05/08 00:44:56;;;;;;;1.65;1.27;;;11.80;75.00;;;;;;5112225;28;20043;-71
2022/05/08 00:47:22;;;;;;;2.08;1.20;;;11.80;75.00;;;;;;5112570;28;20397;-71
2022/05/08 00:49:48;;;;;;;3.22;1.73;;;11.70;75.00;;;;;;5112626;28;20086;-72
2022/05/08 00:52:15;;;;;;;1.85;1.33;;;11.70;75.10;;;;;;5112513;28;20097;-70
2022/05/08 00:54:41;;;;;;;1.92;1.30;;;11.70;75.10;;;;;;5094382;28;20051;-71
2022/05/08 00:57:07;;;;;;;2.33;1.27;;;11.70;75.20;;;;;;5112326;28;20146;-71
2022/05/08 00:59:34;;;;;;;1.63;1.00;;;11.60;75.20;;;;;;5112492;28;20071;-70
2022/05/08 01:02:00;;;;;;;1.15;1.05;;;11.60;75.20;;;;;;5112349;28;20040;-71
2022/05/08 01:04:25;;;;;;;1.70;1.30;;;11.60;75.30;;;;;;5112294;28;20047;-70
2022/05/08 01:06:51;;;;;;;2.70;1.33;;;11.60;75.20;;;;;;5112360;28;20389;-70
2022/05/08 01:09:18;;;;;;;2.45;1.20;;;11.70;75.30;;;;;;5112168;28;20074;-71
2022/05/08 01:11:44;;;;;;;2.15;1.25;;;11.60;75.20;;;;;;5113430;28;20036;-72
2022/05/08 01:14:12;;;;;;;1.55;1.13;;;11.60;75.20;;;;;;5115504;28;20044;-71
2022/05/08 01:16:38;;;;;;;3.25;1.42;;;11.50;75.20;;;;;;5115933;28;20035;-71
2022/05/08 01:19:04;;;;;;;2.30;1.10;;;11.50;75.20;;;;;;5115648;28;20035;-71
2022/05/08 01:21:38;;;;;;;1.85;1.05;;;11.50;75.20;;;;;;5115564;28;20508;-71
2022/05/08 01:24:05;;;;;;;3.47;1.30;;;11.50;75.20;;;;;;5113620;28;20092;-71
2022/05/08 01:26:31;;;;;;;1.15;0.90;;;11.50;75.20;;;;;;5097255;28;20043;-71
2022/05/08 01:28:56;;;;;;;1.58;1.10;;;11.40;75.20;;;;;;5115805;28;20522;-71
2022/05/08 01:31:22;;;;;;;1.83;1.00;;;11.40;75.20;;;;;;5097165;28;20138;-71
2022/05/08 01:33:48;;;;;;;1.15;0.80;;;11.40;75.10;;;;;;5115341;28;20032;-71
2022/05/08 01:36:14;;;;;;;1.02;0.80;;;11.30;75.10;;;;;;5115327;28;20135;-71
2022/05/08 01:38:39;;;;;;;0.90;0.80;;;11.40;75.20;;;;;;5115534;28;20370;-71
2022/05/08 01:41:05;;;;;;;1.33;0.80;;;11.30;75.10;;;;;;5115907;28;20039;-71
2022/05/08 01:43:36;;;;;;;1.92;0.80;;;11.30;75.10;;;;;;5115139;28;20040;-71
2022/05/08 01:46:03;;;;;;;1.35;0.85;;;11.30;75.10;;;;;;5096993;28;20040;-71
2022/05/08 01:48:30;;;;;;;1.27;0.80;;;11.20;75.00;;;;;;5115195;28;20119;-71
2022/05/08 01:50:58;;;;;;;2.50;0.93;;;11.20;75.00;;;;;;5097439;28;20040;-71
2022/05/08 01:53:27;;;;;;;1.50;1.00;;;11.20;75.00;;;;;;5115742;28;20043;-71
2022/05/08 01:55:54;;;;;;;3.78;1.08;;;11.20;75.00;;;;;;5113481;28;20096;-71
2022/05/08 01:58:23;;;;;;;1.55;0.70;;;11.20;75.00;;;;;;5114900;28;20401;-71
2022/05/08 02:00:49;;;;;;;1.50;0.85;;;11.10;75.00;;;;;;5097201;28;20047;-71
2022/05/08 02:03:15;;;;;;;2.30;0.82;;;11.10;75.00;;;;;;5114982;28;20043;-71
2022/05/08 02:05:43;;;;;;;1.15;0.55;;;11.10;75.00;;;;;;5115017;28;20069;-71
2022/05/08 02:08:10;;;;;;;1.10;0.68;;;11.10;75.00;;;;;;5097515;28;20047;-71
2022/05/08 02:10:36;;;;;;;1.95;0.70;;;11.00;74.90;;;;;;5096758;28;20089;-71
2022/05/08 02:13:02;;;;;;;1.60;0.68;;;11.10;75.00;;;;;;5114958;28;20119;-71
2022/05/08 02:15:29;;;;;;;1.10;0.68;;;11.00;74.90;;;;;;5097430;28;20039;-71
2022/05/08 02:18:04;;;;;;;1.48;0.60;;;11.00;74.90;;;;;;5096846;28;20047;-71
2022/05/08 02:20:30;;;;;;;1.10;0.70;;;11.00;74.90;;;;;;5113471;28;20097;-71
2022/05/08 02:22:57;;;;;;;1.70;0.70;;;10.90;74.80;;;;;;5096375;28;20069;-71
2022/05/08 02:25:23;;;;;;;1.80;0.70;;;11.00;74.80;;;;;;5096329;28;20493;-72
2022/05/08 02:27:51;;;;;;;1.35;0.57;;;11.00;74.90;;;;;;5114504;28;20046;-70
2022/05/08 02:30:20;;;;;;;1.08;0.70;;;11.00;74.80;;;;;;5114691;28;20044;-71
2022/05/08 02:32:46;;;;;;;1.00;0.45;;;10.90;74.80;;;;;;5114552;28;20035;-72
2022/05/08 02:35:12;;;;;;;1.48;0.70;;;10.90;74.80;;;;;;5115148;28;20432;-71
2022/05/08 02:37:40;;;;;;;1.75;0.68;;;10.90;74.80;;;;;;5114575;28;20442;-71
2022/05/08 02:40:09;;;;;;;2.08;0.90;;;11.00;74.90;;;;;;5114487;28;20036;-71
2022/05/08 02:42:36;;;;;;;1.05;0.55;;;10.80;74.80;;;;;;5096484;28;20039;-71
2022/05/08 02:45:03;;;;;;;1.95;0.70;;;10.80;74.80;;;;;;5114570;28;20074;-71
2022/05/08 02:47:29;;;;;;;0.60;0.50;;;10.80;74.90;;;;;;5112555;28;20512;-71
2022/05/08 02:49:54;;;;;;;0.43;0.40;;;10.80;74.90;;;;;;5114922;28;20044;-71
2022/05/08 02:52:20;;;;;;;1.55;0.65;;;10.70;74.80;;;;;;5095883;28;20089;-71
2022/05/08 02:54:46;;;;;;;1.30;0.50;;;10.70;74.80;;;;;;5095801;28;20158;-71
2022/05/08 02:59:50;;;;;;;1.00;0.60;;;10.70;74.80;;;;;;5114103;28;20399;-71
2022/05/08 03:02:16;;;;;;;1.30;0.60;;;10.70;74.80;;;;;;5095859;28;20073;-71
2022/05/08 03:04:42;;;;;;;1.25;0.55;;;10.70;74.80;;;;;;5114068;28;20081;-71
2022/05/08 03:07:08;;;;;;;2.75;0.60;;;10.60;74.80;;;;;;5113858;28;20446;-70
2022/05/08 03:09:34;;;;;;;1.48;0.60;;;10.60;74.80;;;;;;5114106;28;20118;-70
2022/05/08 03:11:59;;;;;;;1.73;0.60;;;10.60;74.90;;;;;;5113816;28;20772;-71
2022/05/08 03:14:25;;;;;;;2.45;0.63;;;10.60;74.90;;;;;;5113841;28;20039;-70
2022/05/08 03:16:51;;;;;;;1.60;0.57;;;10.60;74.90;;;;;;5095480;28;20043;-71
2022/05/08 03:19:21;;;;;;;1.90;0.50;;;10.50;75.00;;;;;;5114022;28;20032;-71
2022/05/08 03:21:51;;;;;;;1.30;0.50;;;10.50;75.00;;;;;;5114303;28;20122;-71
2022/05/08 03:24:17;;;;;;;1.58;0.60;;;10.60;75.00;;;;;;5113582;28;20071;-71
2022/05/08 03:26:43;;;;;;;2.47;0.68;;;10.40;75.00;;;;;;5095257;28;20411;-71
2022/05/08 03:29:08;;;;;;;3.50;0.70;;;10.50;75.00;;;;;;5095169;28;20051;-71
2022/05/08 03:31:35;;;;;;;2.25;0.50;;;10.40;75.00;;;;;;5113737;28;20046;-71
2022/05/08 03:34:00;;;;;;;0.80;0.50;;;10.40;74.90;;;;;;5113203;28;20553;-71
2022/05/08 03:36:26;;;;;;;1.25;0.50;;;10.40;75.00;;;;;;5113522;28;20036;-71
2022/05/08 03:38:52;;;;;;;1.92;0.60;;;10.40;74.90;;;;;;5113733;28;20032;-71
2022/05/08 03:41:19;;;;;;;1.20;0.40;;;10.40;74.90;;;;;;5095278;28;20096;-71
2022/05/08 03:43:46;;;;;;;1.00;0.30;;;10.40;75.00;;;;;;5113828;28;20031;-70
2022/05/08 03:46:13;;;;;;;2.13;0.55;;;10.40;75.00;;;;;;5095091;28;20044;-71
2022/05/08 03:48:39;;;;;;;0.85;0.47;;;10.40;75.00;;;;;;5113245;28;20028;-71
2022/05/08 03:51:05;;;;;;;2.65;0.60;;;10.40;74.90;;;;;;5113869;28;20074;-71
2022/05/08 03:53:31;;;;;;;2.13;0.50;;;10.40;75.00;;;;;;5113874;28;20055;-71
2022/05/08 03:55:57;;;;;;;2.85;0.68;;;10.30;74.90;;;;;;5094854;28;20035;-71
2022/05/08 03:58:23;;;;;;;1.45;0.60;;;10.30;75.00;;;;;;5113505;28;20437;-71
2022/05/08 04:00:49;;;;;;;1.98;0.60;;;10.30;75.00;;;;;;5113727;28;20122;-71
2022/05/08 04:03:14;;;;;;;1.92;0.40;;;10.40;75.10;;;;;;5078747;28;20630;-71
2022/05/08 04:05:40;;;;;;;1.17;0.38;;;10.20;75.00;;;;;;5113384;28;20031;-70
2022/05/08 04:08:06;;;;;;;1.05;0.52;;;10.20;75.00;;;;;;5113788;28;20122;-71
2022/05/08 04:10:33;;;;;;;1.55;0.63;;;10.20;75.00;;;;;;5112871;28;20100;-70
2022/05/08 04:12:59;;;;;;;0.75;0.50;;;10.20;75.00;;;;;;5113750;28;20047;-71
2022/05/08 04:18:10;;;;;;;1.20;0.38;;;10.10;75.10;;;;;;5113114;28;20051;-71
2022/05/08 04:20:36;;;;;;;0.57;0.40;;;10.10;75.10;;;;;;5094908;28;20074;-71
2022/05/08 04:25:40;;;;;;;0.88;0.40;;;10.10;75.20;;;;;;5113201;28;20043;-71
2022/05/08 04:28:06;;;;;;;2.67;0.50;;;10.10;75.10;;;;;;5112998;28;20039;-70
2022/05/08 04:30:32;;;;;;;1.20;0.60;;;10.00;75.10;;;;;;5094632;28;20489;-71
2022/05/08 04:32:58;;;;;;;0.82;0.50;;;10.00;75.10;;;;;;5112897;28;20036;-71
2022/05/08 04:35:23;;;;;;;2.38;0.50;;;10.00;75.10;;;;;;5112891;28;20108;-71
2022/05/08 04:37:49;;;;;;;0.88;0.52;;;10.00;75.20;;;;;;5094513;28;20469;-71
2022/05/08 04:40:15;;;;;;;0.40;0.40;;;9.90;75.10;;;;;;5112974;28;20050;-71
2022/05/08 04:42:40;;;;;;;2.63;0.60;;;9.90;75.20;;;;;;5113058;28;20508;-71
2022/05/08 04:45:07;;;;;;;1.95;0.52;;;9.90;75.30;;;;;;5094499;28;20534;-71
2022/05/08 04:47:33;;;;;;;1.75;0.50;;;9.90;75.30;;;;;;5112740;28;20497;-71
2022/05/08 04:49:58;;;;;;;1.13;0.50;;;9.90;75.30;;;;;;5094592;28;20051;-72
2022/05/08 04:52:24;;;;;;;1.55;0.50;;;9.90;75.30;;;;;;5112792;28;20501;-72
2022/05/08 04:54:49;;;;;;;1.00;0.40;;;9.80;75.20;;;;;;5112907;28;20052;-71
2022/05/08 04:57:15;;;;;;;0.82;0.40;;;9.80;75.20;;;;;;5094567;28;20075;-71
2022/05/08 04:59:41;;;;;;;1.98;0.60;;;9.80;75.20;;;;;;5077643;28;20134;-72
2022/05/08 05:02:08;;;;;;;0.93;0.38;;;9.80;75.20;;;;;;5112666;28;20027;-72
2022/05/08 05:04:35;;;;;;;2.10;0.57;;;9.80;75.20;;;;;;5077797;28;20032;-71
2022/05/08 05:07:01;;;;;;;0.75;0.40;;;9.80;75.20;;;;;;5112781;28;20035;-71
2022/05/08 05:09:27;;;;;;;1.17;0.40;;;9.80;75.20;;;;;;5112479;28;20046;-71
2022/05/08 05:11:53;;;;;;;1.27;0.63;;;9.90;75.10;;;;;;5112566;28;20036;-72
2022/05/08 05:14:19;;;;;;;1.40;0.43;;;10.00;75.20;;;;;;5077151;28;20134;-71
2022/05/08 05:16:46;;;;;;;1.23;0.50;;;9.90;75.10;;;;;;5093807;28;20401;-72
2022/05/08 05:19:12;;;;;;;1.40;0.50;;;9.90;75.10;;;;;;5112206;28;20036;-72
2022/05/08 05:21:38;;;;;;;1.38;0.40;;;9.90;75.00;;;;;;5093964;28;20497;-73
2022/05/08 05:24:05;;;;;;;0.43;0.38;;;9.90;75.00;;;;;;5112807;28;20528;-72
2022/05/08 05:26:30;;;;;;;1.80;0.68;;;9.90;75.00;;;;;;5111993;28;20130;-72
2022/05/08 05:28:56;;;;;;;1.02;0.45;;;9.90;74.90;;;;;;5112146;28;20071;-73
2022/05/08 05:31:25;;;;;;;2.20;0.38;;;9.90;74.90;;;;;;5112483;28;20044;-73
2022/05/08 05:33:51;;;;;;;1.58;0.40;;;9.90;74.90;;;;;;5077181;28;20040;-73
2022/05/08 05:36:16;;;;;;;1.70;0.43;;;10.00;74.80;;;;;;5112488;28;20051;-73
2022/05/08 05:38:42;;;;;;;1.20;0.50;;;10.00;74.80;;;;;;5076967;28;20397;-73
2022/05/08 05:41:08;;;;;;;0.95;0.45;;;10.00;75.30;;;;;;5111936;28;20519;-73
2022/05/08 05:43:34;;;;;;;1.85;0.82;;;9.90;74.50;;;;;;5093732;28;20050;-72
2022/05/08 05:48:36;;;;;;;3.75;0.68;;;10.00;74.50;;;;;;5111952;28;20496;-73
2022/05/08 05:51:05;;;;;;;1.90;0.60;;;10.10;74.40;;;;;;5112526;28;20040;-73
2022/05/08 05:53:31;;;;;;;1.98;0.50;;;10.10;74.40;;;;;;5112302;28;20089;-72
2022/05/08 05:55:58;;;;;;;2.30;0.40;;;10.10;74.30;;;;;;5111883;28;20047;-72
2022/05/08 05:58:24;;;;;;;0.70;0.40;;;10.10;74.20;;;;;;5114035;28;20044;-72
2022/05/08 06:00:49;;;;;;;2.20;0.55;;;10.20;74.20;;;;;;5115209;28;20043;-73
2022/05/08 06:03:15;;;;;;;1.25;0.52;;;10.20;74.10;;;;;;5115266;28;20134;-73
2022/05/08 06:05:41;;;;;;;1.95;0.70;;;10.20;73.90;;;;;;5115424;28;20071;-73
2022/05/08 06:08:08;;;;;;;1.75;0.50;;;10.30;73.90;;;;;;5115280;28;20043;-73
2022/05/08 06:10:34;;;;;;;1.48;0.43;;;10.30;73.80;;;;;;5115074;28;20080;-73
2022/05/08 06:13:00;;;;;;;1.27;0.38;;;10.40;73.70;;;;;;5115222;28;20031;-72
2022/05/08 06:15:26;;;;;;;1.08;0.45;;;10.50;73.60;;;;;;5115797;28;20032;-72
2022/05/08 06:17:51;;;;;;;1.15;0.57;;;10.50;73.40;;;;;;5115007;28;20047;-73
2022/05/08 06:20:17;;;;;;;2.40;0.50;;;10.60;73.30;;;;;;5079838;28;20039;-73
2022/05/08 06:22:43;;;;;;;3.53;0.50;;;10.60;73.20;;;;;;5115647;28;20035;-73
2022/05/08 06:25:09;;;;;;;1.30;0.60;;;10.60;73.00;;;;;;5096776;28;20048;-72
2022/05/08 06:27:35;;;;;;;0.65;0.38;;;10.70;73.00;;;;;;5115529;28;20043;-73
2022/05/08 06:30:01;;;;;;;1.38;0.57;;;10.70;73.00;;;;;;5115366;28;20039;-73
2022/05/08 06:32:27;;;;;;;2.17;0.52;;;10.70;72.80;;;;;;5114721;28;20046;-72
2022/05/08 06:34:52;;;;;;;2.42;0.70;;;10.70;72.70;;;;;;5097168;28;20127;-73
2022/05/08 06:37:18;;;;;;;1.65;0.50;;;10.80;72.80;;;;;;5115241;28;20040;-72
2022/05/08 06:39:44;;;;;;;1.38;0.50;;;10.90;72.70;;;;;;5115217;28;20031;-73
2022/05/08 06:42:09;;;;;;;1.05;0.52;;;10.90;72.60;;;;;;5114848;28;20435;-73
2022/05/08 06:44:35;;;;;;;1.52;0.43;;;10.90;72.50;;;;;;5097146;28;20038;-72
2022/05/08 06:47:01;;;;;;;1.30;0.63;;;10.90;72.40;;;;;;5096308;28;20158;-72
2022/05/08 06:49:28;;;;;;;0.98;0.35;;;10.90;72.30;;;;;;5114413;28;20039;-73
2022/05/08 06:51:54;;;;;;;2.08;0.50;;;11.00;72.30;;;;;;5114256;28;20043;-72
2022/05/08 06:54:19;;;;;;;3.42;0.82;;;11.10;72.30;;;;;;5114474;28;20046;-73
2022/05/08 06:56:45;;;;;;;0.68;0.40;;;11.10;72.10;;;;;;5096015;28;20040;-72
2022/05/08 07:01:50;;;;;;;0.85;0.43;;;11.30;71.90;;;;;;5114146;28;20044;-73
2022/05/08 07:04:16;;;;;;;0.98;0.40;;;11.20;71.80;;;;;;5095610;28;20043;-72
2022/05/08 07:06:42;;;;;;;0.20;0.20;;;11.40;71.80;;;;;;5114572;28;20035;-73
2022/05/08 07:09:08;;;;;;;0.35;0.30;;;11.40;71.60;;;;;;5113509;28;20390;-73
2022/05/08 07:11:34;;;;;;;0.77;0.30;;;11.40;71.50;;;;;;5114020;28;20603;-72
2022/05/08 07:14:00;;;;;;;1.35;0.60;;;11.50;71.40;;;;;;5078893;28;20066;-72
2022/05/08 07:16:27;;;;;;;1.17;0.40;;;11.50;71.30;;;;;;5095819;28;20051;-72
2022/05/08 07:18:53;;;;;;;1.00;0.40;;;11.70;71.90;;;;;;5113969;28;20477;-72
2022/05/08 07:21:19;;;;;;;0.90;0.50;;;11.70;71.00;;;;;;5114158;28;20032;-72
2022/05/08 07:23:46;;;;;;;0.57;0.30;;;11.90;70.90;;;;;;5095682;28;20097;-72
2022/05/08 07:26:12;;;;;;;0.45;0.35;;;12.00;70.70;;;;;;5078814;28;20035;-72
2022/05/08 07:28:38;;;;;;;0.63;0.30;;;12.10;70.40;;;;;;5114301;28;20046;-72
2022/05/08 07:31:04;;;;;;;0.40;0.30;;;12.30;70.20;;;;;;5095615;28;20118;-72
2022/05/08 07:33:34;;;;;;;0.50;0.40;;;12.40;70.00;;;;;;5113989;28;20366;-72
2022/05/08 07:36:16;;;;;;;0.90;0.50;;;12.50;69.90;;;;;;5112126;28;20074;-71
2022/05/08 07:38:44;;;;;;;1.48;0.60;;;12.60;69.70;;;;;;5093344;28;20050;-71
2022/05/08 07:41:11;;;;;;;0.95;0.50;;;12.60;69.50;;;;;;5113669;28;20126;-72
2022/05/08 07:43:38;;;;;;;0.68;0.50;;;12.80;69.30;;;;;;5114191;28;20046;-72
2022/05/08 07:46:05;;;;;;;1.02;0.50;;;12.90;69.10;;;;;;5078499;28;20115;-72
2022/05/08 07:48:30;;;;;;;0.47;0.40;;;12.90;69.00;;;;;;5113619;28;20064;-72
2022/05/08 07:50:59;;;;;;;0.95;0.30;;;13.00;69.00;;;;;;5113400;28;20114;-73
2022/05/08 07:53:26;;;;;;;0.63;0.40;;;13.10;68.80;;;;;;5096022;28;20032;-73
2022/05/08 07:55:52;;;;;;;0.47;0.40;;;13.30;68.60;;;;;;5114077;28;20046;-71
2022/05/08 07:58:19;;;;;;;0.40;0.30;;;13.50;68.50;;;;;;5113643;28;20039;-71
2022/05/08 08:00:45;;;;;;;0.30;0.30;;;13.70;68.00;;;;;;5114069;28;20044;-72
2022/05/08 08:03:11;;;;;;;1.55;0.40;;;13.90;67.70;;;;;;5113153;28;20036;-72
2022/05/08 08:05:36;;;;;;;0.70;0.40;;;14.00;67.50;;;;;;5078010;28;20032;-72
2022/05/08 08:08:02;;;;;;;1.08;0.40;;;14.20;67.20;;;;;;5113877;28;20097;-72
2022/05/08 08:10:29;;;;;;;1.25;0.40;;;14.40;67.00;;;;;;5113307;28;20035;-73
2022/05/08 08:12:56;;;;;;;1.27;0.43;;;14.60;66.80;;;;;;5095635;28;20142;-72
2022/05/08 08:15:22;;;;;;;0.60;0.40;;;14.70;66.70;;;;;;5094957;28;20486;-71
2022/05/08 08:17:48;;;;;;;0.30;0.30;;;14.90;66.60;;;;;;5113018;28;20039;-72
2022/05/08 08:20:14;;;;;;;2.75;0.47;;;15.00;66.50;;;;;;5112569;28;20397;-72
2022/05/08 08:22:39;;;;;;;0.40;0.40;;;15.10;66.30;;;;;;5112965;28;20149;-72
2022/05/08 08:25:06;;;;;;;0.70;0.50;;;15.10;66.20;;;;;;5095006;28;20172;-72
2022/05/08 08:27:32;;;;;;;1.88;0.63;;;15.20;66.30;;;;;;5112857;28;20047;-72
2022/05/08 08:29:59;;;;;;;1.77;0.50;;;15.20;66.30;;;;;;5112848;28;20050;-72
2022/05/08 08:32:25;;;;;;;1.38;0.50;;;15.30;66.40;;;;;;5113153;28;20043;-73
2022/05/08 08:34:53;;;;;;;2.38;0.55;;;15.40;66.20;;;;;;5094701;28;20087;-71
2022/05/08 08:37:19;;;;;;;1.17;0.60;;;15.60;66.00;;;;;;5112828;28;20504;-72
2022/05/08 08:39:45;;;;;;;0.47;0.47;;;15.60;65.80;;;;;;5112671;28;20043;-71
2022/05/08 08:42:28;;;;;;;1.52;0.70;;;15.70;65.80;;;;;;5112674;28;20127;-72
2022/05/08 08:47:52;;;;;;;1.17;0.40;;;15.80;65.90;;;;;;5112333;28;20138;-72
2022/05/08 08:50:20;;;;;;;1.45;0.63;;;16.00;65.80;;;;;;5113188;28;20058;-72
2022/05/08 08:52:46;;;;;;;0.40;0.40;;;16.20;65.60;;;;;;5112774;28;20052;-72
2022/05/08 08:55:14;;;;;;;1.80;0.50;;;16.20;65.50;;;;;;5094521;28;20047;-72
2022/05/08 08:57:39;;;;;;;3.40;0.68;;;16.30;65.40;;;;;;5077319;28;20377;-71
2022/05/08 09:00:07;;;;;;;2.13;0.75;;;16.30;65.30;;;;;;5112638;28;20058;-72
2022/05/08 09:02:34;;;;;;;1.10;0.50;;;16.30;65.20;;;;;;5093740;28;20074;-72
2022/05/08 09:05:07;;;;;;;1.17;0.40;;;16.40;65.40;;;;;;5094017;28;20032;-70
2022/05/08 09:07:39;;;;;;;1.80;0.43;;;16.50;65.40;;;;;;5112332;28;20040;-72
2022/05/08 09:10:25;;;;;;;1.02;0.55;;;16.60;65.10;;;;;;5112542;28;20062;-71
2022/05/08 09:13:06;;;;;;;1.65;0.68;;;16.60;64.80;;;;;;5112162;28;20070;-70
2022/05/08 09:15:35;;;;;;;2.25;0.63;;;16.70;64.90;;;;;;5094034;28;20132;-71
2022/05/08 09:18:06;;;;;;;1.95;0.60;;;16.80;65.00;;;;;;5094022;28;20141;-71
2022/05/08 09:20:39;;;;;;;1.33;0.60;;;16.90;64.70;;;;;;5094187;28;20031;-71
2022/05/08 09:23:10;;;;;;;1.27;0.60;;;17.00;64.50;;;;;;5112879;28;20036;-70
2022/05/08 09:25:52;;;;;;;0.93;0.68;;;17.00;64.50;;;;;;5094630;28;20110;-71
2022/05/08 09:28:25;;;;;;;2.58;0.70;;;17.00;64.40;;;;;;5112057;28;20136;-71
2022/05/08 09:31:11;;;;;;;1.40;0.73;;;17.10;64.50;;;;;;5093924;28;20378;-70
2022/05/08 09:33:41;;;;;;;1.48;0.63;;;17.10;64.30;;;;;;5114774;28;20130;-71
2022/05/08 09:36:10;;;;;;;1.52;0.60;;;17.20;64.40;;;;;;5115554;28;20049;-69
2022/05/08 09:38:46;;;;;;;1.52;0.38;;;17.30;64.20;;;;;;5097243;28;20112;-69
2022/05/08 09:41:13;;;;;;;1.42;0.50;;;17.40;63.90;;;;;;5113913;28;20050;-69
2022/05/08 09:43:40;;;;;;;3.03;0.70;;;17.40;63.80;;;;;;5115459;28;20032;-70
2022/05/08 09:46:08;;;;;;;0.63;0.52;;;17.50;63.70;;;;;;5115378;28;20044;-70
2022/05/08 09:48:34;;;;;;;1.13;0.57;;;17.50;63.60;;;;;;5097912;28;20047;-70
2022/05/08 09:51:04;;;;;;;1.02;0.50;;;17.60;63.60;;;;;;5116095;28;20074;-69
2022/05/08 09:53:31;;;;;;;0.70;0.63;;;17.60;63.40;;;;;;5114705;28;20046;-69
2022/05/08 09:55:59;;;;;;;1.13;0.60;;;17.60;63.40;;;;;;5098232;28;20036;-70
2022/05/08 09:58:26;;;;;;;0.85;0.40;;;17.70;63.40;;;;;;5115223;28;20044;-69
2022/05/08 10:00:52;;;;;;;1.95;0.70;;;17.80;63.20;;;;;;5115316;28;20040;-69
2022/05/08 10:03:19;;;;;;;2.10;0.70;;;17.80;63.10;;;;;;5115485;28;20039;-69
2022/05/08 10:05:46;;;;;;;0.98;0.60;;;17.80;62.90;;;;;;5115539;28;20478;-69
2022/05/08 10:08:14;;;;;;;1.55;0.60;;;17.90;63.00;;;;;;5115755;28;20032;-70
2022/05/08 10:16:56;;;;;;;1.63;0.70;;;17.90;62.40;;;;;;5114037;28;20039;-69
2022/05/08 10:19:43;;;;;;;;;;;18.00;62.40;;;;;;5114374;28;20027;-69
2022/05/08 10:22:12;;;;;;;0.40;0.40;;;18.00;62.50;;;;;;5100280;28;19912;-70
2022/05/08 10:24:41;;;;;;;0.40;0.40;;;18.00;62.50;;;;;;5097065;28;20149;-70
2022/05/08 10:27:14;;;;;;;0.77;0.55;;;18.10;62.30;;;;;;5096620;28;20118;-69
2022/05/08 10:30:02;;;;;;;1.10;0.60;;;18.10;62.00;;;;;;5114904;28;20040;-71
2022/05/08 10:32:49;;;;;;;0.45;0.40;;;18.20;62.00;;;;;;5099829;28;20043;-70
2022/05/08 10:35:18;;;;;;;1.05;0.52;;;18.20;61.60;;;;;;5099996;28;20040;-70
2022/05/08 10:37:51;;;;;;;1.55;0.63;;;18.20;61.70;;;;;;5114704;28;20043;-71
2022/05/08 10:40:33;;;;;;;1.10;0.57;;;18.20;61.50;;;;;;5096665;28;20036;-70
2022/05/08 10:43:19;;;;;;;2.22;0.60;;;18.30;61.20;;;;;;5114428;28;20038;-72
2022/05/08 10:45:46;;;;;;;0.60;0.40;;;18.40;61.10;;;;;;5114580;28;20085;-71
2022/05/08 10:48:15;;;;;;;0.85;0.60;;;18.40;60.90;;;;;;5096798;28;20052;-71
2022/05/08 10:50:57;;;;;;;0.80;0.60;;;18.50;60.60;;;;;;5114772;28;20043;-71
2022/05/08 10:53:25;;;;;;;0.40;0.40;;;18.50;60.40;;;;;;5114712;28;20047;-71
2022/05/08 10:55:52;;;;;;;1.67;0.70;;;18.50;60.10;;;;;;5114423;28;20039;-71
2022/05/08 10:58:18;;;;;;;1.30;0.60;;;18.50;60.40;;;;;;5112759;28;20538;-71
2022/05/08 11:00:44;;;;;;;1.17;0.60;;;18.50;60.10;;;;;;5096357;28;20047;-71
2022/05/08 11:03:10;;;;;;;1.05;0.70;;;18.50;60.00;;;;;;5114933;28;20040;-70
2022/05/08 11:05:38;;;;;;;0.75;0.60;;;18.50;60.10;;;;;;5114573;28;20047;-71
2022/05/08 11:08:10;;;;;;;1.30;0.70;;;18.50;59.90;;;;;;5096299;28;20507;-71
2022/05/08 11:10:39;;;;;;;1.52;0.70;;;18.50;59.70;;;;;;5114437;28;20484;-71
2022/05/08 11:13:10;;;;;;;1.58;0.82;;;18.60;59.70;;;;;;5079173;28;20040;-71
2022/05/08 11:15:45;;;;;;;1.83;0.80;;;18.60;59.50;;;;;;5114337;28;20051;-71
2022/05/08 11:18:15;;;;;;;1.20;0.50;;;18.60;59.50;;;;;;5113353;28;20285;-71
2022/05/08 11:20:52;;;;;;;1.20;0.50;;;18.60;59.30;;;;;;5096189;28;20378;-71
2022/05/08 11:23:19;;;;;;;1.20;0.50;;;18.70;59.20;;;;;;5114549;28;20031;-71
2022/05/08 11:25:47;;;;;;;1.98;0.60;;;18.70;59.20;;;;;;5062621;28;20035;-71
2022/05/08 11:28:14;;;;;;;0.32;0.32;;;18.80;59.10;;;;;;5114161;28;20075;-71
2022/05/08 11:30:40;;;;;;;2.53;0.60;;;18.80;58.80;;;;;;5113944;28;20062;-71
2022/05/08 11:36:08;;;;;;;2.70;0.77;;;18.80;58.70;;;;;;5113703;28;20047;-71
2022/05/08 11:38:51;;;;;;;1.67;0.60;;;18.70;58.70;;;;;;5114014;28;20126;-71
2022/05/08 11:41:21;;;;;;;1.27;0.50;;;18.70;58.70;;;;;;5113205;28;20047;-71
2022/05/08 11:43:49;;;;;;;1.65;0.60;;;18.70;58.70;;;;;;5096253;28;20544;-71
2022/05/08 11:46:22;;;;;;;0.85;0.52;;;18.70;58.60;;;;;;5113679;28;20097;-72
2022/05/08 11:48:49;;;;;;;1.23;0.57;;;18.70;58.40;;;;;;5095575;28;20497;-70
2022/05/08 11:51:21;;;;;;;1.05;0.55;;;18.80;58.20;;;;;;5113597;28;20051;-72
2022/05/08 11:53:49;;;;;;;1.00;0.50;;;19.00;58.00;;;;;;5114138;28;20024;-72
2022/05/08 11:56:26;;;;;;;1.75;0.50;;;19.00;57.90;;;;;;5112740;28;20460;-71
2022/05/08 11:58:54;;;;;;;0.77;0.43;;;19.10;57.90;;;;;;5113932;28;20047;-72
2022/05/08 12:01:24;;;;;;;0.65;0.57;;;19.00;57.80;;;;;;5113434;28;20035;-72
2022/05/08 12:03:50;;;;;;;1.37;0.40;;;19.00;57.70;;;;;;5095214;28;20031;-70
2022/05/08 12:06:16;;;;;;;1.05;0.52;;;19.10;57.60;;;;;;5113296;28;20277;-70
2022/05/08 12:08:42;;;;;;;0.47;0.40;;;19.00;57.50;;;;;;5061705;28;20169;-71
2022/05/08 12:11:26;;;;;;;0.68;0.57;;;18.90;57.70;;;;;;5113392;28;20039;-71
2022/05/08 12:14:00;;;;;;;1.10;0.52;;;18.90;57.80;;;;;;5112908;28;20140;-72
2022/05/08 12:16:26;;;;;;;0.63;0.45;;;19.00;57.80;;;;;;5113446;28;20059;-72
2022/05/08 12:19:15;;;;;;;0.40;0.40;;;19.00;57.60;;;;;;5113333;28;20486;-71
2022/05/08 12:21:41;;;;;;;0.50;0.40;;;19.00;57.70;;;;;;5111072;28;20126;-71
2022/05/08 12:24:10;;;;;;;0.73;0.50;;;18.90;57.70;;;;;;5094677;28;20504;-70
2022/05/08 12:26:35;;;;;;;1.25;0.40;;;18.90;57.50;;;;;;5112748;28;20102;-71
2022/05/08 12:29:01;;;;;;;1.27;0.52;;;18.90;57.50;;;;;;5112806;28;20039;-71
2022/05/08 12:31:27;;;;;;;0.52;0.32;;;18.90;57.40;;;;;;5113390;28;20035;-70
2022/05/08 12:33:53;;;;;;;1.00;0.43;;;18.80;57.40;;;;;;5113448;28;20432;-70
2022/05/08 12:36:18;;;;;;;1.27;0.50;;;18.90;57.50;;;;;;5113192;28;20487;-70
2022/05/08 12:38:44;;;;;;;1.17;0.50;;;18.90;57.30;;;;;;5112584;28;20055;-70
2022/05/08 12:41:12;;;;;;;1.15;0.52;;;19.00;57.10;;;;;;5113259;28;20044;-70
2022/05/08 12:43:38;;;;;;;0.80;0.40;;;19.00;57.00;;;;;;5112738;28;20051;-70
2022/05/08 12:46:03;;;;;;;1.38;0.52;;;18.90;57.00;;;;;;5113148;28;20032;-70
2022/05/08 12:48:29;;;;;;;0.47;0.30;;;19.00;57.10;;;;;;5113104;28;20534;-70
2022/05/08 12:50:55;;;;;;;2.13;0.52;;;19.00;56.90;;;;;;5077332;28;20050;-70
2022/05/08 12:53:20;;;;;;;1.10;0.50;;;19.00;56.90;;;;;;5112525;28;20437;-70
2022/05/08 12:55:46;;;;;;;0.20;0.20;;;19.00;56.70;;;;;;5112985;28;20043;-70
2022/05/08 13:00:56;;;;;;;0.28;0.28;;;18.90;56.50;;;;;;5112348;28;20507;-69
2022/05/08 13:03:22;;;;;;;0.30;0.30;;;19.00;56.60;;;;;;5094469;28;20040;-70
2022/05/08 13:05:49;;;;;;;0.75;0.43;;;18.90;56.50;;;;;;5112584;28;20038;-70
2022/05/08 13:08:15;;;;;;;0.68;0.30;;;18.90;56.30;;;;;;5116049;28;20151;-69
2022/05/08 13:10:41;;;;;;;1.00;0.47;;;18.80;56.30;;;;;;5115928;28;20082;-68
2022/05/08 13:13:06;;;;;;;1.05;0.40;;;18.80;56.40;;;;;;5115782;28;20067;-72
2022/05/08 13:15:33;;;;;;;0.70;0.30;;;18.80;56.40;;;;;;5116090;28;20039;-70
2022/05/08 13:17:59;;;;;;;1.10;0.50;;;18.80;56.30;;;;;;5116065;28;20074;-71